KFOE/FOE METAR and TAF weather

Enter ICAO airport designator
Station Type Date Time Source
KFOE METAR 2019/04/18 09:53 UTC NOAA

KFOE 180953Z AUTO 34011KT 10SM CLR 10/06 A2979 RMK AO2 SLP082 T01000056


Station Type Date Time Source
KFOE Decoded METAR 2019/04/18 09:53 UTC NOAA

FORBES FIELD, KS, United States (KFOE) 38-56N 95-39W 320M
Apr 18, 2019 - 05:53 AM EDT / 2019.04.18 0953 UTC
Wind: from the NNW (340 degrees) at 13 MPH (11 KT):0
Visibility: 10 mile(s):0
Sky conditions: clear
Temperature: 50.0 F (10.0 C)
Dew Point: 42.1 F (5.6 C)
Relative Humidity: 74%
Pressure (altimeter): 29.79 in. Hg (1008 hPa)
ob: KFOE 180953Z AUTO 34011KT 10SM CLR 10/06 A2979 RMK AO2 SLP082 T01000056
cycle: 10

Station Type Date Time Source
KFOE TAF 2019/04/18 06:22 UTC NOAA

TAF KFOE 180520Z 1806/1906 35013G22KT P6SM VCSH OVC070
FM180800 34010G18KT P6SM OVC120
FM181500 34014G24KT P6SM SCT250
FM182000 34012KT P6SM BKN060

Example: see airport list